| time (UTC) | temp C | wind direction | speed KPH | gust KPH | rain 1hr cm | rain 24hr cm | rain mn cm | humidity % | barometer mb |
| 20260906193708 | 21 | 116 | 3.2 | 3.2 | 0.00 | 0.00 | 0.00 | 87 | 1020.2 |
| 20260906193208 | 21 | 142 | 4.8 | 8.0 | 0.00 | 0.00 | 0.00 | 87 | 1020.3 |
| 20260906192704 | 21 | 108 | 1.6 | 3.2 | 0.00 | 0.00 | 0.00 | 88 | 1019.9 |
| 20260906192158 | 21 | 81 | 6.4 | 11.3 | 0.00 | 0.00 | 0.00 | 87 | 1019.9 |
| 20260906191652 | 21 | 95 | 3.2 | 4.8 | 0.00 | 0.00 | 0.00 | 88 | 1019.7 |
| 20260906191151 | 21 | 132 | 3.2 | 4.8 | 0.00 | 0.00 | 0.00 | 87 | 1019.6 |
| 20260906190646 | 21 | 214 | 6.4 | 8.0 | 0.00 | 0.00 | 0.00 | 87 | 1019.7 |
| 20260906190140 | 21 | 316 | 3.2 | 4.8 | 0.00 | 0.00 | 0.00 | 87 | 1019.3 |
| 20260906185639 | 21 | 212 | 8.0 | 24.1 | 0.00 | 0.00 | 0.00 | 88 | 1019.3 |
| 20260906185133 | 21 | 168 | 11.3 | 14.5 | 0.00 | 0.00 | 0.00 | 89 | 1019.3 |
| 20260906184627 | 21 | 169 | 25.7 | 38.6 | 0.00 | 0.00 | 0.00 | 89 | 1019.4 |
| 20260906184124 | 21 | 71 | 16.1 | 22.5 | 0.00 | 0.00 | 0.00 | 88 | 1019.4 |
| 20260906183619 | 22 | 229 | 9.7 | 14.5 | 0.00 | 0.00 | 0.00 | 87 | 1019.6 |
| 20260906183115 | 22 | 100 | 4.8 | 4.8 | 0.00 | 0.00 | 0.00 | 86 | 1019.3 |
| 20260906182609 | 26 | 182 | 20.9 | 33.8 | 0.00 | 0.00 | 0.00 | 79 | 1019.3 |
| 20260906182106 | 27 | 51 | 3.2 | 4.8 | 0.00 | 0.00 | 0.00 | 83 | 1018.9 |
| 20260906181601 | 27 | 88 | 0.0 | 0.0 | 0.00 | 0.00 | 0.00 | 84 | 1018.9 |
| 20260906181051 | 27 | 328 | 6.4 | 8.0 | 0.00 | 0.00 | 0.00 | 84 | 1018.9 |
| 20260906180551 | 27 | 351 | 4.8 | 4.8 | 0.00 | 0.00 | 0.00 | 83 | 1018.9 |
| 20260906180049 | 27 | 319 | 8.0 | 11.3 | 0.00 | 0.00 | 0.00 | 83 | 1018.6 |
| 20260906175549 | 26 | 295 | 9.7 | 14.5 | 0.00 | 0.00 | 0.00 | 86 | 1018.5 |
| 20260906175044 | 26 | 318 | 8.0 | 11.3 | 0.00 | 0.00 | 0.00 | 87 | 1018.7 |
| 20260906174542 | 26 | 14 | 9.7 | 14.5 | 0.00 | 0.00 | 0.00 | 86 | 1018.5 |
| 20260906174032 | 26 | 54 | 3.2 | 4.8 | 0.00 | 0.00 | 0.00 | 87 | 1018.5 |
| 20260906173527 | 26 | 318 | 9.7 | 14.5 | 0.00 | 0.00 | 0.00 | 87 | 1018.6 |
| 20260906173023 | 26 | 326 | 3.2 | 3.2 | 0.00 | 0.00 | 0.00 | 87 | 1018.6 |
| 20260906172517 | 26 | 307 | 11.3 | 16.1 | 0.00 | 0.00 | 0.00 | 88 | 1018.8 |
| 20260906172012 | 26 | 347 | 4.8 | 4.8 | 0.00 | 0.00 | 0.00 | 90 | 1018.8 |
| 20260906171507 | 26 | 197 | 4.8 | 4.8 | 0.00 | 0.00 | 0.00 | 91 | 1019.0 |
| 20260906171003 | 26 | 67 | 3.2 | 4.8 | 0.00 | 0.00 | 0.00 | 91 | 1019.0 |
| 20260906170458 | 26 | 212 | 4.8 | 8.0 | 0.00 | 0.00 | 0.00 | 92 | 1018.9 |
| 20260906165955 | 26 | 207 | 6.4 | 8.0 | 0.00 | 0.00 | 0.00 | 91 | 1019.3 |
| 20260906165454 | 26 | 241 | 8.0 | 8.0 | 0.00 | 0.00 | 0.00 | 91 | 1019.4 |
| 20260906164949 | 26 | 203 | 8.0 | 14.5 | 0.00 | 0.00 | 0.00 | 91 | 1019.4 |
| 20260906164448 | 26 | 260 | 3.2 | 4.8 | 0.00 | 0.00 | 0.00 | 92 | 1019.1 |
| 20260906163945 | 26 | 273 | 6.4 | 11.3 | 0.00 | 0.00 | 0.00 | 92 | 1018.9 |
| 20260906163440 | 26 | 114 | 6.4 | 8.0 | 0.00 | 0.00 | 0.00 | 92 | 1018.9 |
| 20260906162938 | 26 | 162 | 8.0 | 11.3 | 0.00 | 0.00 | 0.00 | 91 | 1018.5 |
| 20260906162437 | 26 | 67 | 4.8 | 4.8 | 0.00 | 0.00 | 0.00 | 92 | 1018.4 |
| 20260906161932 | 26 | 124 | 1.6 | 3.2 | 0.00 | 0.00 | 0.00 | 91 | 1018.3 |
| 20260906161431 | 26 | 144 | 4.8 | 4.8 | 0.00 | 0.00 | 0.00 | 92 | 1018.3 |
| 20260906160931 | 26 | 189 | 12.9 | 14.5 | 0.00 | 0.00 | 0.00 | 92 | 1018.2 |
| 20260906160424 | 26 | 114 | 6.4 | 8.0 | 0.00 | 0.00 | 0.00 | 92 | 1018.3 |
| 20260906155922 | 26 | 244 | 6.4 | 8.0 | 0.00 | 0.00 | 0.00 | 91 | 1018.2 |
| 20260906155417 | 26 | 155 | 3.2 | 4.8 | 0.00 | 0.00 | 0.00 | 91 | 1018.1 |
| 20260906154913 | 26 | 132 | 3.2 | 4.8 | 0.00 | 0.00 | 0.00 | 91 | 1018.1 |
| 20260906154412 | 26 | 204 | 4.8 | 8.0 | 0.00 | 0.00 | 0.00 | 91 | 1018.0 |
| 20260906153911 | 26 | 251 | 4.8 | 4.8 | 0.00 | 0.00 | 0.00 | 90 | 1017.8 |
| 20260906153410 | 26 | 198 | 4.8 | 8.0 | 0.00 | 0.00 | 0.00 | 90 | 1017.8 |
| 20260906152906 | 25 | 83 | 0.0 | 0.0 | 0.00 | 0.00 | 0.00 | 91 | 1017.7 |
| 20260906152400 | 25 | 200 | 3.2 | 4.8 | 0.00 | 0.00 | 0.00 | 90 | 1017.8 |
| 20260906151859 | 25 | 200 | 6.4 | 8.0 | 0.00 | 0.00 | 0.00 | 91 | 1017.9 |
| 20260906151355 | 25 | 128 | 3.2 | 4.8 | 0.00 | 0.00 | 0.00 | 92 | 1017.8 |
| 20260906150851 | 25 | 117 | 4.8 | 4.8 | 0.00 | 0.00 | 0.00 | 93 | 1018.2 |
| 20260906150346 | 25 | 126 | 3.2 | 3.2 | 0.00 | 0.00 | 0.00 | 95 | 1018.1 |
| 20260906145845 | 25 | 126 | 1.6 | 3.2 | 0.00 | 0.00 | 0.00 | 95 | 1017.9 |
| 20260906145344 | 25 | 102 | 0.0 | 0.0 | 0.00 | 0.00 | 0.00 | 95 | 1017.9 |
| 20260906144839 | 25 | 226 | 3.2 | 4.8 | 0.00 | 0.00 | 0.00 | 94 | 1018.2 |
| 20260906144334 | 25 | 161 | 4.8 | 8.0 | 0.00 | 0.00 | 0.00 | 95 | 1018.1 |
| 20260906143834 | 25 | 238 | 4.8 | 4.8 | 0.00 | 0.00 | 0.00 | 95 | 1018.0 |
| 20260906143331 | 25 | 230 | 8.0 | 11.3 | 0.00 | 0.00 | 0.00 | 95 | 1018.2 |
| 20260906142826 | 25 | 228 | 6.4 | 11.3 | 0.00 | 0.00 | 0.00 | 96 | 1018.1 |
| 20260906142321 | 25 | 180 | 4.8 | 4.8 | 0.00 | 0.00 | 0.00 | 96 | 1018.1 |
| 20260906141820 | 25 | 173 | 3.2 | 4.8 | 0.00 | 0.00 | 0.00 | 96 | 1018.0 |
| 20260906141315 | 24 | 234 | 4.8 | 4.8 | 0.00 | 0.00 | 0.00 | 96 | 1018.1 |
| 20260906140814 | 24 | 221 | 3.2 | 4.8 | 0.00 | 0.00 | 0.00 | 97 | 1018.0 |
| 20260906140309 | 24 | 118 | 0.0 | 3.2 | 0.00 | 0.00 | 0.00 | 97 | 1017.6 |
| 20260906135807 | 24 | 98 | 0.0 | 3.2 | 0.00 | 0.00 | 0.00 | 98 | 1017.7 |
| 20260906135305 | 24 | 197 | 4.8 | 8.0 | 0.00 | 0.00 | 0.00 | 98 | 1017.6 |
| 20260906134757 | 24 | 162 | 4.8 | 8.0 | 0.00 | 0.00 | 0.00 | 98 | 1017.3 |
| 20260906134252 | 24 | 203 | 1.6 | 3.2 | 0.00 | 0.00 | 0.00 | 98 | 1017.5 |
| 20260906133748 | 24 | 114 | 0.0 | 3.2 | 0.00 | 0.00 | 0.00 | 98 | 1017.5 |
| 20260906133243 | 23 | 126 | 3.2 | 4.8 | 0.00 | 0.00 | 0.00 | 98 | 1017.6 |
| 20260906132738 | 23 | 123 | 3.2 | 8.0 | 0.00 | 0.00 | 0.00 | 99 | 1017.3 |
| 20260906132234 | 23 | 209 | 1.6 | 3.2 | 0.00 | 0.00 | 0.00 | 99 | 1017.3 |
| 20260906131730 | 23 | 203 | 1.6 | 3.2 | 0.00 | 0.00 | 0.00 | 99 | 1017.5 |
| 20260906131224 | 23 | 150 | 3.2 | 8.0 | 0.00 | 0.00 | 0.00 | 99 | 1017.6 |
| 20260906130720 | 23 | 198 | 6.4 | 8.0 | 0.00 | 0.00 | 0.00 | 99 | 1017.3 |
| 20260906130215 | 23 | 138 | 0.0 | 3.2 | 0.00 | 0.00 | 0.00 | 99 | 1017.5 |
| 20260906125713 | 23 | 173 | 8.0 | 11.3 | 0.00 | 0.00 | 0.00 | 99 | 1017.1 |
| 20260906125212 | 23 | 120 | 3.2 | 4.8 | 0.00 | 0.00 | 0.00 | 99 | 1017.2 |
| 20260906124707 | 23 | 155 | 8.0 | 11.3 | 0.00 | 0.00 | 0.00 | 99 | 1017.2 |
| 20260906124202 | 23 | 119 | 3.2 | 8.0 | 0.00 | 0.00 | 0.00 | 99 | 1017.2 |
| 20260906123701 | 23 | 145 | 6.4 | 8.0 | 0.00 | 0.00 | 0.00 | 99 | 1017.2 |
| 20260906123156 | 23 | 164 | 1.6 | 3.2 | 0.00 | 0.00 | 0.00 | 99 | 1017.0 |
| 20260906122655 | 23 | 149 | 9.7 | 14.5 | 0.00 | 0.00 | 0.00 | 99 | 1017.1 |
| 20260906122151 | 23 | 287 | 8.0 | 14.5 | 0.00 | 0.00 | 0.00 | 99 | 1017.2 |
| 20260906121647 | 23 | 160 | 0.0 | 3.2 | 0.00 | 0.00 | 0.00 | 99 | 1017.2 |
| 20260906121138 | 23 | 175 | 1.6 | 4.8 | 0.00 | 0.00 | 0.00 | 99 | 1017.3 |
| 20260906120633 | 23 | 211 | 4.8 | 4.8 | 0.00 | 0.00 | 0.00 | 99 | 1017.0 |
| 20260906120130 | 23 | 146 | 3.2 | 4.8 | 0.00 | 0.00 | 0.00 | 99 | 1017.1 |
| 20260906115624 | 23 | 194 | 3.2 | 4.8 | 0.00 | 0.00 | 0.00 | 99 | 1017.1 |
| 20260906115120 | 23 | 228 | 8.0 | 11.3 | 0.00 | 0.00 | 0.00 | 99 | 1017.0 |
| 20260906114613 | 23 | 118 | 1.6 | 3.2 | 0.00 | 0.00 | 0.00 | 99 | 1017.0 |
| 20260906114108 | 23 | 180 | 6.4 | 8.0 | 0.00 | 0.00 | 0.00 | 99 | 1016.8 |
| 20260906113608 | 23 | 107 | 1.6 | 3.2 | 0.00 | 0.00 | 0.00 | 99 | 1016.9 |
| 20260906113103 | 23 | 158 | 1.6 | 4.8 | 0.00 | 0.00 | 0.00 | 99 | 1016.9 |
| 20260906112603 | 23 | 153 | 3.2 | 4.8 | 0.00 | 0.00 | 0.00 | 99 | 1016.7 |
| 20260906112100 | 23 | 133 | 1.6 | 3.2 | 0.00 | 0.00 | 0.00 | 99 | 1016.8 |
| 20260906111559 | 23 | 124 | 0.0 | 0.0 | 0.00 | 0.00 | 0.00 | 99 | 1016.5 |
| 20260906111054 | 23 | 92 | 0.0 | 0.0 | 0.00 | 0.00 | 0.00 | 99 | 1016.4 |
| 20260906110554 | 23 | 101 | 0.0 | 0.0 | 0.00 | 0.00 | 0.00 | 99 | 1016.5 |
| 20260906110054 | 23 | 120 | 0.0 | 0.0 | 0.00 | 0.00 | 0.00 | 99 | 1016.5 |
| 20260906105548 | 23 | 143 | 1.6 | 3.2 | 0.00 | 0.00 | 0.00 | 99 | 1016.4 |
| 20260906105045 | 23 | 204 | 0.0 | 3.2 | 0.00 | 0.00 | 0.00 | 99 | 1016.3 |
| 20260906104543 | 23 | 156 | 0.0 | 0.0 | 0.00 | 0.00 | 0.00 | 99 | 1016.3 |
| 20260906104037 | 23 | 94 | 3.2 | 3.2 | 0.00 | 0.00 | 0.00 | 99 | 1016.5 |
| 20260906103536 | 23 | 170 | 3.2 | 4.8 | 0.00 | 0.00 | 0.00 | 99 | 1016.4 |
| 20260906103031 | 23 | 120 | 4.8 | 4.8 | 0.00 | 0.00 | 0.00 | 99 | 1016.5 |
| 20260906102531 | 23 | 110 | 3.2 | 4.8 | 0.00 | 0.00 | 0.00 | 99 | 1016.4 |
| 20260906102026 | 23 | 97 | 1.6 | 3.2 | 0.00 | 0.00 | 0.00 | 99 | 1016.2 |
| 20260906101521 | 22 | 98 | 6.4 | 8.0 | 0.00 | 0.00 | 0.00 | 99 | 1016.5 |
| 20260906101016 | 23 | 123 | 3.2 | 4.8 | 0.00 | 0.00 | 0.00 | 99 | 1016.3 |
| 20260906100512 | 22 | 125 | 4.8 | 4.8 | 0.00 | 0.00 | 0.00 | 99 | 1016.3 |
| 20260906100012 | 22 | 106 | 0.0 | 3.2 | 0.00 | 0.00 | 0.00 | 99 | 1016.1 |
| 20260906095506 | 22 | 133 | 6.4 | 8.0 | 0.00 | 0.00 | 0.00 | 99 | 1016.3 |
| 20260906095002 | 22 | 97 | 1.6 | 3.2 | 0.00 | 0.00 | 0.00 | 99 | 1016.4 |
| 20260906094500 | 22 | 106 | 0.0 | 0.0 | 0.00 | 0.00 | 0.00 | 99 | 1016.3 |
| 20260906093957 | 22 | 111 | 0.0 | 0.0 | 0.00 | 0.00 | 0.00 | 99 | 1016.3 |
| 20260906093453 | 22 | 111 | 0.0 | 0.0 | 0.00 | 0.00 | 0.00 | 99 | 1016.4 |
| 20260906092953 | 22 | 104 | 0.0 | 0.0 | 0.00 | 0.00 | 0.00 | 99 | 1016.4 |
| 20260906092453 | 22 | 103 | 0.0 | 0.0 | 0.00 | 0.00 | 0.00 | 99 | 1016.6 |
| 20260906091948 | 22 | 104 | 0.0 | 0.0 | 0.00 | 0.00 | 0.00 | 99 | 1016.7 |
| 20260906091438 | 22 | 104 | 0.0 | 0.0 | 0.00 | 0.00 | 0.00 | 99 | 1016.8 |
| 20260906090934 | 22 | 105 | 0.0 | 0.0 | 0.00 | 0.00 | 0.00 | 99 | 1016.7 |
| 20260906090429 | 22 | 112 | 0.0 | 0.0 | 0.00 | 0.00 | 0.00 | 99 | 1016.6 |
| 20260906085924 | 23 | 103 | 0.0 | 0.0 | 0.00 | 0.00 | 0.00 | 99 | 1016.9 |
| 20260906085424 | 23 | 107 | 0.0 | 0.0 | 0.00 | 0.00 | 0.00 | 99 | 1016.8 |
| 20260906084923 | 23 | 104 | 0.0 | 0.0 | 0.00 | 0.00 | 0.00 | 99 | 1017.0 |
| 20260906084418 | 23 | 105 | 0.0 | 0.0 | 0.00 | 0.00 | 0.00 | 98 | 1016.8 |
| 20260906083917 | 23 | 101 | 0.0 | 0.0 | 0.00 | 0.00 | 0.00 | 98 | 1017.0 |
| 20260906083413 | 23 | 106 | 0.0 | 0.0 | 0.00 | 0.00 | 0.00 | 98 | 1017.0 |
| 20260906082912 | 23 | 112 | 0.0 | 0.0 | 0.00 | 0.00 | 0.00 | 98 | 1016.8 |
| 20260906082407 | 23 | 136 | 4.8 | 4.8 | 0.00 | 0.00 | 0.00 | 98 | 1016.8 |
| 20260906081903 | 23 | 129 | 3.2 | 3.2 | 0.00 | 0.00 | 0.00 | 98 | 1016.5 |
| 20260906081358 | 23 | 114 | 0.0 | 3.2 | 0.00 | 0.00 | 0.00 | 98 | 1016.5 |
| 20260906080854 | 23 | 168 | 3.2 | 3.2 | 0.00 | 0.00 | 0.00 | 98 | 1016.3 |
| 20260906080351 | 23 | 119 | 1.6 | 3.2 | 0.00 | 0.00 | 0.00 | 98 | 1016.2 |
| 20260906075849 | 23 | 101 | 0.0 | 3.2 | 0.00 | 0.00 | 0.00 | 98 | 1016.3 |
| 20260906075344 | 23 | 148 | 3.2 | 4.8 | 0.00 | 0.00 | 0.00 | 98 | 1016.2 |
| 20260906074840 | 23 | 127 | 0.0 | 0.0 | 0.00 | 0.00 | 0.00 | 98 | 1016.2 |
| 20260906074339 | 23 | 123 | 0.0 | 3.2 | 0.00 | 0.00 | 0.00 | 98 | 1016.3 |
| 20260906073838 | 23 | 109 | 0.0 | 3.2 | 0.00 | 0.00 | 0.00 | 98 | 1016.3 |
| 20260906073333 | 23 | 132 | 3.2 | 8.0 | 0.00 | 0.00 | 0.00 | 98 | 1016.3 |
| 20260906072830 | 23 | 151 | 3.2 | 4.8 | 0.00 | 0.00 | 0.00 | 98 | 1016.5 |
| 20260906072325 | 23 | 118 | 1.6 | 3.2 | 0.00 | 0.00 | 0.00 | 98 | 1016.6 |
| 20260906071821 | 23 | 119 | 0.0 | 0.0 | 0.00 | 0.00 | 0.00 | 98 | 1016.3 |
| 20260906071315 | 23 | 105 | 0.0 | 0.0 | 0.00 | 0.00 | 0.00 | 98 | 1016.7 |
| 20260906070812 | 23 | 116 | 0.0 | 0.0 | 0.00 | 0.00 | 0.00 | 98 | 1016.6 |
| 20260906070308 | 23 | 112 | 0.0 | 0.0 | 0.00 | 0.00 | 0.00 | 98 | 1016.7 |
| 20260906065808 | 23 | 128 | 3.2 | 3.2 | 0.00 | 0.00 | 0.00 | 98 | 1016.8 |
| 20260906065305 | 23 | 121 | 0.0 | 0.0 | 0.00 | 0.00 | 0.00 | 98 | 1016.8 |
| 20260906064758 | 22 | 215 | 0.0 | 3.2 | 0.00 | 0.00 | 0.00 | 98 | 1016.6 |
| 20260906064254 | 22 | 97 | 0.0 | 0.0 | 0.00 | 0.00 | 0.00 | 98 | 1016.8 |
| 20260906063749 | 22 | 112 | 1.6 | 3.2 | 0.00 | 0.00 | 0.00 | 98 | 1016.8 |
| 20260906063245 | 22 | 114 | 0.0 | 0.0 | 0.00 | 0.00 | 0.00 | 98 | 1016.8 |
| 20260906062739 | 22 | 118 | 3.2 | 4.8 | 0.00 | 0.00 | 0.00 | 98 | 1016.7 |
| 20260906062239 | 22 | 100 | 1.6 | 3.2 | 0.00 | 0.00 | 0.00 | 98 | 1016.8 |
| 20260906061735 | 22 | 119 | 3.2 | 4.8 | 0.00 | 0.00 | 0.00 | 98 | 1016.9 |
| 20260906061231 | 22 | 128 | 1.6 | 3.2 | 0.00 | 0.00 | 0.00 | 98 | 1016.7 |
| 20260906060726 | 22 | 113 | 0.0 | 3.2 | 0.00 | 0.00 | 0.00 | 98 | 1016.5 |
| 20260906060224 | 22 | 148 | 0.0 | 3.2 | 0.00 | 0.00 | 0.00 | 98 | 1016.7 |
| 20260906055719 | 22 | 106 | 0.0 | 0.0 | 0.00 | 0.00 | 0.00 | 97 | 1016.8 |
| 20260906055214 | 22 | 108 | 0.0 | 0.0 | 0.00 | 0.00 | 0.00 | 97 | 1016.7 |
| 20260906054709 | 22 | 116 | 1.6 | 3.2 | 0.00 | 0.00 | 0.00 | 97 | 1016.8 |
| 20260906054204 | 22 | 125 | 1.6 | 3.2 | 0.00 | 0.00 | 0.00 | 97 | 1016.7 |
| 20260906053701 | 22 | 95 | 0.0 | 0.0 | 0.00 | 0.00 | 0.00 | 97 | 1017.0 |
| 20260906053156 | 22 | 128 | 3.2 | 4.8 | 0.00 | 0.00 | 0.00 | 97 | 1016.8 |
| 20260906052651 | 22 | 120 | 1.6 | 3.2 | 0.00 | 0.00 | 0.00 | 97 | 1016.9 |
| 20260906052148 | 22 | 114 | 1.6 | 3.2 | 0.00 | 0.00 | 0.00 | 97 | 1016.8 |
| 20260906051644 | 22 | 110 | 1.6 | 3.2 | 0.00 | 0.00 | 0.00 | 97 | 1016.7 |
| 20260906051143 | 22 | 109 | 0.0 | 3.2 | 0.00 | 0.00 | 0.00 | 97 | 1016.8 |
| 20260906050639 | 22 | 105 | 0.0 | 0.0 | 0.00 | 0.00 | 0.00 | 97 | 1016.8 |
| 20260906050134 | 22 | 102 | 0.0 | 0.0 | 0.00 | 0.00 | 0.00 | 96 | 1017.1 |
| 20260906045632 | 22 | 99 | 0.0 | 0.0 | 0.00 | 1.63 | 1.63 | 96 | 1016.8 |
| 20260906045128 | 22 | 97 | 0.0 | 0.0 | 0.00 | 1.63 | 1.63 | 95 | 1016.8 |
| 20260906044624 | 22 | 112 | 0.0 | 0.0 | 0.00 | 1.63 | 1.63 | 95 | 1017.0 |
| 20260906044119 | 22 | 138 | 1.6 | 3.2 | 0.00 | 1.63 | 1.63 | 95 | 1017.0 |
| 20260906043615 | 22 | 127 | 4.8 | 4.8 | 0.00 | 1.63 | 1.63 | 95 | 1017.0 |
| 20260906043110 | 22 | 111 | 0.0 | 0.0 | 0.00 | 1.63 | 1.63 | 95 | 1017.1 |
| 20260906042609 | 22 | 102 | 3.2 | 3.2 | 0.00 | 1.63 | 1.63 | 95 | 1017.5 |
| 20260906042104 | 22 | 92 | 0.0 | 0.0 | 0.00 | 1.63 | 1.63 | 95 | 1017.0 |
| 20260906041600 | 22 | 120 | 1.6 | 3.2 | 0.00 | 1.63 | 1.63 | 95 | 1017.1 |
| 20260906041054 | 22 | 125 | 1.6 | 3.2 | 0.00 | 1.63 | 1.63 | 94 | 1017.3 |
| 20260906040550 | 22 | 121 | 3.2 | 4.8 | 0.00 | 1.63 | 1.63 | 94 | 1017.3 |
| 20260906040045 | 22 | 130 | 3.2 | 4.8 | 0.00 | 1.63 | 1.63 | 93 | 1017.6 |
| 20260906035541 | 22 | 130 | 4.8 | 4.8 | 0.00 | 1.63 | 1.63 | 93 | 1017.3 |
| 20260906035031 | 23 | 123 | 3.2 | 4.8 | 0.00 | 1.63 | 1.63 | 93 | 1017.3 |
| 20260906034530 | 22 | 100 | 4.8 | 4.8 | 0.00 | 1.63 | 1.63 | 93 | 1017.3 |
| 20260906034026 | 22 | 103 | 0.0 | 3.2 | 0.00 | 1.63 | 1.63 | 93 | 1017.3 |
| 20260906033520 | 23 | 145 | 3.2 | 4.8 | 0.00 | 1.63 | 1.63 | 92 | 1017.2 |
| 20260906033016 | 23 | 123 | 6.4 | 8.0 | 0.00 | 1.63 | 1.63 | 92 | 1017.1 |
| 20260906032507 | 23 | 94 | 8.0 | 8.0 | 0.00 | 1.63 | 1.63 | 92 | 1016.9 |
| 20260906032006 | 22 | 127 | 3.2 | 4.8 | 0.00 | 1.63 | 1.63 | 93 | 1016.9 |
| 20260906031502 | 23 | 122 | 3.2 | 4.8 | 0.00 | 1.63 | 1.63 | 91 | 1016.9 |
| 20260906030957 | 23 | 155 | 6.4 | 8.0 | 0.00 | 1.63 | 1.63 | 90 | 1016.9 |
| 20260906030451 | 23 | 112 | 1.6 | 3.2 | 0.00 | 1.63 | 1.63 | 90 | 1016.8 |
| 20260906025945 | 23 | 100 | 0.0 | 0.0 | 0.00 | 1.63 | 1.63 | 90 | 1017.0 |
| 20260906025440 | 23 | 128 | 0.0 | 0.0 | 0.00 | 1.63 | 1.63 | 90 | 1016.9 |
| 20260906024939 | 23 | 128 | 3.2 | 4.8 | 0.00 | 1.63 | 1.63 | 90 | 1016.9 |
| 20260906024439 | 23 | 114 | 3.2 | 3.2 | 0.00 | 1.63 | 1.63 | 90 | 1017.0 |
| 20260906023938 | 22 | 118 | 0.0 | 0.0 | 0.00 | 1.63 | 1.63 | 91 | 1016.9 |
| 20260906023435 | 22 | 110 | 0.0 | 0.0 | 0.00 | 1.63 | 1.63 | 91 | 1016.8 |
| 20260906022930 | 23 | 111 | 0.0 | 0.0 | 0.00 | 1.63 | 1.63 | 90 | 1016.7 |
| 20260906022426 | 23 | 129 | 3.2 | 4.8 | 0.00 | 1.63 | 1.63 | 88 | 1016.7 |
| 20260906021921 | 24 | 145 | 6.4 | 11.3 | 0.00 | 1.63 | 1.63 | 86 | 1016.8 |
| 20260906021420 | 24 | 132 | 6.4 | 8.0 | 0.00 | 1.63 | 1.63 | 86 | 1016.7 |
| 20260906020915 | 24 | 117 | 4.8 | 4.8 | 0.00 | 1.63 | 1.63 | 86 | 1016.8 |
| 20260906020415 | 24 | 133 | 1.6 | 3.2 | 0.00 | 1.63 | 1.63 | 85 | 1016.6 |
| 20260906015909 | 23 | 118 | 6.4 | 8.0 | 0.00 | 1.63 | 1.63 | 86 | 1016.5 |
| 20260906015409 | 23 | 107 | 1.6 | 3.2 | 0.00 | 1.63 | 1.63 | 87 | 1016.4 |
| 20260906014908 | 23 | 121 | 3.2 | 4.8 | 0.00 | 1.63 | 1.63 | 86 | 1016.5 |
| 20260906014403 | 24 | 104 | 3.2 | 4.8 | 0.00 | 1.63 | 1.63 | 85 | 1016.4 |
| 20260906013859 | 24 | 81 | 8.0 | 11.3 | 0.00 | 1.63 | 1.63 | 84 | 1016.4 |
| 20260906013354 | 24 | 147 | 3.2 | 4.8 | 0.00 | 1.63 | 1.63 | 84 | 1016.3 |
| 20260906012850 | 24 | 131 | 4.8 | 4.8 | 0.00 | 1.63 | 1.63 | 84 | 1016.1 |
| 20260906012345 | 25 | 109 | 0.0 | 3.2 | 0.00 | 1.63 | 1.63 | 84 | 1016.2 |
| 20260906011844 | 25 | 117 | 6.4 | 8.0 | 0.00 | 1.63 | 1.63 | 83 | 1016.1 |
| 20260906011339 | 25 | 139 | 3.2 | 4.8 | 0.00 | 1.63 | 1.63 | 83 | 1016.2 |
| 20260906010835 | 25 | 102 | 3.2 | 4.8 | 0.00 | 1.63 | 1.63 | 81 | 1016.1 |
| 20260906010331 | 25 | 160 | 6.4 | 8.0 | 0.00 | 1.63 | 1.63 | 80 | 1016.2 |
| 20260906005827 | 25 | 107 | 3.2 | 4.8 | 0.00 | 1.63 | 1.63 | 81 | 1016.2 |
| 20260906005326 | 25 | 127 | 3.2 | 4.8 | 0.00 | 1.63 | 1.63 | 80 | 1016.0 |
| 20260906004825 | 26 | 107 | 0.0 | 3.2 | 0.00 | 1.63 | 1.63 | 78 | 1015.9 |
| 20260906004324 | 26 | 143 | 3.2 | 4.8 | 0.00 | 1.63 | 1.63 | 77 | 1016.0 |
| 20260906003820 | 26 | 100 | 1.6 | 3.2 | 0.00 | 1.63 | 1.63 | 76 | 1016.1 |
| 20260906003315 | 26 | 58 | 1.6 | 3.2 | 0.00 | 1.63 | 1.63 | 76 | 1015.8 |
| 20260906002811 | 26 | 105 | 1.6 | 3.2 | 0.00 | 1.63 | 1.63 | 75 | 1015.7 |
| 20260906002310 | 26 | 250 | 3.2 | 4.8 | 0.00 | 1.63 | 1.63 | 74 | 1015.7 |
| 20260906001806 | 27 | 123 | 0.0 | 3.2 | 0.00 | 1.63 | 1.63 | 75 | 1015.7 |
| 20260906001301 | 27 | 141 | 6.4 | 8.0 | 0.00 | 1.63 | 1.63 | 74 | 1015.8 |
| 20260906000755 | 27 | 119 | 4.8 | 4.8 | 0.00 | 1.63 | 1.63 | 72 | 1015.7 |
| 20260906000250 | 27 | 157 | 3.2 | 4.8 | 0.00 | 1.63 | 1.63 | 72 | 1015.7 |
| 20260905235745 | 28 | 141 | 3.2 | 4.8 | 0.00 | 1.63 | 1.63 | 70 | 1015.7 |
| 20260905235244 | 28 | 111 | 6.4 | 11.3 | 0.00 | 1.63 | 1.63 | 68 | 1015.5 |
| 20260905234740 | 28 | 142 | 6.4 | 8.0 | 0.00 | 1.63 | 1.63 | 66 | 1015.7 |
| 20260905234235 | 29 | 206 | 8.0 | 16.1 | 0.00 | 1.63 | 1.63 | 64 | 1015.6 |
| 20260905233731 | 29 | 247 | 9.7 | 14.5 | 0.00 | 1.63 | 1.63 | 63 | 1015.7 |
| 20260905233230 | 30 | 193 | 4.8 | 4.8 | 0.00 | 1.63 | 1.63 | 63 | 1015.7 |
| 20260905232730 | 30 | 171 | 11.3 | 16.1 | 0.00 | 1.63 | 1.63 | 60 | 1015.6 |
| 20260905232226 | 30 | 203 | 11.3 | 14.5 | 0.00 | 1.63 | 1.63 | 60 | 1015.6 |
| 20260905231721 | 30 | 184 | 8.0 | 11.3 | 0.00 | 1.63 | 1.63 | 59 | 1015.6 |
| 20260905231217 | 30 | 238 | 8.0 | 11.3 | 0.00 | 1.63 | 1.63 | 60 | 1015.7 |
| 20260905230713 | 31 | 178 | 9.7 | 14.5 | 0.00 | 1.63 | 1.63 | 59 | 1015.4 |
| 20260905230210 | 31 | 220 | 12.9 | 16.1 | 0.00 | 1.63 | 1.63 | 58 | 1015.5 |
| 20260905225710 | 31 | 187 | 8.0 | 14.5 | 0.00 | 1.63 | 1.63 | 57 | 1015.4 |
| 20260905225205 | 31 | 261 | 6.4 | 8.0 | 0.00 | 1.63 | 1.63 | 56 | 1015.5 |
| 20260905224705 | 31 | 250 | 11.3 | 14.5 | 0.00 | 1.63 | 1.63 | 56 | 1015.5 |
| 20260905224200 | 31 | 180 | 4.8 | 4.8 | 0.00 | 1.63 | 1.63 | 56 | 1015.5 |
| 20260905223656 | 31 | 258 | 9.7 | 14.5 | 0.00 | 1.63 | 1.63 | 55 | 1015.5 |
| 20260905223153 | 31 | 253 | 9.7 | 11.3 | 0.00 | 1.63 | 1.63 | 54 | 1015.4 |
| 20260905222648 | 31 | 229 | 9.7 | 14.5 | 0.00 | 1.63 | 1.63 | 54 | 1015.6 |
| 20260905222143 | 31 | 153 | 3.2 | 8.0 | 0.00 | 1.63 | 1.63 | 55 | 1015.5 |
| 20260905221638 | 32 | 174 | 16.1 | 22.5 | 0.00 | 1.63 | 1.63 | 54 | 1015.3 |
| 20260905221135 | 32 | 127 | 6.4 | 11.3 | 0.00 | 1.63 | 1.63 | 52 | 1015.4 |
| 20260905220631 | 31 | 185 | 8.0 | 14.5 | 0.00 | 1.63 | 1.63 | 51 | 1015.1 |
| 20260905220127 | 31 | 151 | 6.4 | 8.0 | 0.00 | 1.63 | 1.63 | 52 | 1015.3 |
| 20260905215626 | 31 | 122 | 11.3 | 16.1 | 0.00 | 1.63 | 1.63 | 50 | 1015.1 |
| 20260905215122 | 31 | 247 | 3.2 | 4.8 | 0.00 | 1.63 | 1.63 | 52 | 1015.2 |
| 20260905214617 | 32 | 224 | 8.0 | 11.3 | 0.00 | 1.63 | 1.63 | 52 | 1015.2 |
| 20260905214112 | 32 | 209 | 9.7 | 16.1 | 0.00 | 1.63 | 1.63 | 51 | 1015.0 |
| 20260905213607 | 32 | 227 | 11.3 | 19.3 | 0.00 | 1.63 | 1.63 | 51 | 1015.1 |
| 20260905213103 | 32 | 247 | 8.0 | 11.3 | 0.00 | 1.63 | 1.63 | 52 | 1015.1 |
| 20260905212602 | 32 | 215 | 8.0 | 14.5 | 0.00 | 1.63 | 1.63 | 51 | 1015.4 |
| 20260905212102 | 32 | 101 | 9.7 | 14.5 | 0.00 | 1.63 | 1.63 | 54 | 1015.3 |
| 20260905211557 | 32 | 231 | 8.0 | 8.0 | 0.00 | 1.63 | 1.63 | 54 | 1015.2 |
| 20260905211053 | 32 | 221 | 9.7 | 11.3 | 0.00 | 1.63 | 1.63 | 53 | 1015.3 |
| 20260905210549 | 31 | 174 | 6.4 | 14.5 | 0.00 | 1.63 | 1.63 | 54 | 1015.2 |
| 20260905210044 | 31 | 177 | 8.0 | 14.5 | 0.00 | 1.63 | 1.63 | 54 | 1015.2 |
| 20260905205543 | 32 | 125 | 8.0 | 14.5 | 0.00 | 1.63 | 1.63 | 54 | 1015.3 |
| 20260905205042 | 31 | 63 | 3.2 | 4.8 | 0.00 | 1.63 | 1.63 | 55 | 1015.3 |
| 20260905204538 | 32 | 169 | 11.3 | 14.5 | 0.00 | 1.63 | 1.63 | 55 | 1015.3 |
| 20260905204033 | 32 | 175 | 6.4 | 8.0 | 0.00 | 1.63 | 1.63 | 55 | 1015.2 |
| 20260905203532 | 32 | 168 | 3.2 | 4.8 | 0.00 | 1.63 | 1.63 | 55 | 1015.1 |
| 20260905203028 | 32 | 112 | 4.8 | 8.0 | 0.00 | 1.63 | 1.63 | 55 | 1015.0 |
| 20260905202523 | 31 | 253 | 4.8 | 8.0 | 0.00 | 1.63 | 1.63 | 57 | 1015.0 |
| 20260905202019 | 31 | 139 | 6.4 | 11.3 | 0.00 | 1.63 | 1.63 | 55 | 1015.1 |
| 20260905201514 | 31 | 257 | 9.7 | 14.5 | 0.00 | 1.63 | 1.63 | 55 | 1015.0 |
| 20260905201014 | 31 | 196 | 11.3 | 14.5 | 0.00 | 1.63 | 1.63 | 57 | 1015.2 |
| 20260905200509 | 31 | 127 | 3.2 | 4.8 | 0.00 | 1.63 | 1.63 | 58 | 1015.4 |
| 20260905200008 | 31 | 219 | 6.4 | 11.3 | 0.00 | 1.63 | 1.63 | 56 | 1015.1 |
| 20260905195503 | 30 | 115 | 8.0 | 14.5 | 0.00 | 1.63 | 1.63 | 58 | 1015.1 |
| 20260905194958 | 30 | 139 | 0.0 | 3.2 | 0.00 | 1.63 | 1.63 | 57 | 1015.1 |
| 20260905194458 | 31 | 238 | 6.4 | 8.0 | 0.00 | 1.63 | 1.63 | 58 | 1015.2 |
| 20260905193957 | 31 | 151 | 3.2 | 4.8 | 0.00 | 1.63 | 1.63 | 56 | 1015.4 |